createdAt,value
2023-12-26T00:00:59.486Z,86.1
2023-12-26T00:01:59.438Z,86.1
2023-12-26T00:03:07.013Z,86.1
2023-12-26T00:03:59.482Z,86.1
2023-12-26T00:04:59.476Z,85.5
2023-12-26T00:05:59.696Z,86.1
2023-12-26T00:06:59.441Z,85.8
2023-12-26T00:07:59.439Z,85.8
2023-12-26T00:08:59.491Z,85.8
2023-12-26T00:10:09.731Z,86.1
2023-12-26T00:10:59.495Z,85.8
2023-12-26T00:11:59.558Z,86.1
2023-12-26T00:12:59.467Z,85.5
2023-12-26T00:13:59.460Z,86.1
2023-12-26T00:14:59.465Z,86.7
2023-12-26T00:15:59.454Z,87
2023-12-26T00:16:59.437Z,87
2023-12-26T00:17:59.540Z,87.3
2023-12-26T00:18:59.720Z,87.7
2023-12-26T00:19:59.458Z,87.4
2023-12-26T00:20:59.480Z,88
2023-12-26T00:21:59.444Z,88.3
2023-12-26T00:22:59.445Z,88
2023-12-26T00:23:59.453Z,87.7
2023-12-26T00:24:59.449Z,87.4
2023-12-26T00:25:59.584Z,88
2023-12-26T00:26:59.484Z,88.6
2023-12-26T00:28:05.987Z,89.3
2023-12-26T00:28:59.441Z,89.3
2023-12-26T00:29:59.506Z,89.6
2023-12-26T00:30:59.487Z,89.9
2023-12-26T00:31:59.456Z,89.6
2023-12-26T00:32:59.676Z,89.6
2023-12-26T00:33:59.642Z,89.3
2023-12-26T00:34:59.458Z,89.1
2023-12-26T00:35:59.520Z,88.7
2023-12-26T00:36:59.479Z,88.1
2023-12-26T00:37:59.445Z,87.8
2023-12-26T00:38:59.507Z,87.5
2023-12-26T00:40:01.479Z,88.1
2023-12-26T00:40:59.442Z,88.1
2023-12-26T00:41:59.470Z,88.8
2023-12-26T00:42:59.440Z,88.8
2023-12-26T00:43:59.464Z,88.2
2023-12-26T00:44:59.502Z,87.6
2023-12-26T00:45:59.457Z,87.2
2023-12-26T00:46:59.467Z,87.6
2023-12-26T00:47:59.650Z,87.5
2023-12-26T00:48:59.571Z,87.5
2023-12-26T00:49:59.464Z,87.9
2023-12-26T00:50:59.490Z,88.2
2023-12-26T00:51:59.455Z,88.2
2023-12-26T00:52:59.457Z,88.2
2023-12-26T00:53:59.494Z,88.2
2023-12-26T00:54:59.444Z,87.6
2023-12-26T00:55:59.449Z,87.3
2023-12-26T00:57:05.687Z,87.3
2023-12-26T00:57:59.441Z,87
2023-12-26T00:58:59.473Z,86.3
2023-12-26T00:59:59.496Z,86
2023-12-26T01:00:59.490Z,85.4
2023-12-26T01:01:59.461Z,85.7
2023-12-26T01:02:59.711Z,85.1
2023-12-26T01:03:59.564Z,85.7
2023-12-26T01:04:59.493Z,86.3
2023-12-26T01:05:59.499Z,86.6
2023-12-26T01:06:59.454Z,87
2023-12-26T01:07:59.453Z,86.9
2023-12-26T01:08:59.475Z,86.9
2023-12-26T01:09:59.442Z,87.3
2023-12-26T01:10:59.453Z,87.6
2023-12-26T01:11:59.539Z,87.6
2023-12-26T01:12:59.447Z,87
2023-12-26T01:13:59.452Z,87
2023-12-26T01:14:59.496Z,87
2023-12-26T01:15:59.462Z,86.4
2023-12-26T01:16:59.468Z,86
2023-12-26T01:18:00.105Z,85.7
2023-12-26T01:18:59.652Z,85.1
2023-12-26T01:19:59.441Z,85.1
2023-12-26T01:20:59.492Z,84.8
2023-12-26T01:21:59.442Z,85.1
2023-12-26T01:22:59.449Z,85.1
2023-12-26T01:23:59.481Z,85.1
2023-12-26T01:24:59.465Z,85.1
2023-12-26T01:25:59.470Z,85.1
2023-12-26T01:26:59.484Z,85.1
2023-12-26T01:27:59.462Z,85.1
2023-12-26T01:28:59.469Z,85.1
2023-12-26T01:29:59.476Z,85.1
2023-12-26T01:31:06.293Z,85.7
2023-12-26T01:31:59.452Z,85.7
2023-12-26T01:33:06.274Z,86
2023-12-26T01:33:59.540Z,86.3
2023-12-26T01:34:59.457Z,86.6
2023-12-26T01:35:59.521Z,86.9
2023-12-26T01:36:59.472Z,87.6
2023-12-26T01:37:59.476Z,87.6
2023-12-26T01:38:59.476Z,87.6
2023-12-26T01:39:59.490Z,87.6
2023-12-26T01:40:59.503Z,87.6
2023-12-26T01:41:59.553Z,87.6
2023-12-26T01:42:59.529Z,87.3
2023-12-26T01:43:59.601Z,87
2023-12-26T01:44:59.471Z,87.6
2023-12-26T01:45:59.443Z,87.6
2023-12-26T01:47:00.413Z,87.6
2023-12-26T01:47:59.655Z,87
2023-12-26T01:48:59.651Z,87
2023-12-26T01:49:59.509Z,87.3
2023-12-26T01:50:59.539Z,86.7
2023-12-26T01:51:59.509Z,86.7
2023-12-26T01:52:59.476Z,86.7
2023-12-26T01:53:59.505Z,86.7
2023-12-26T01:54:59.466Z,86.4
2023-12-26T01:55:59.464Z,85.8
2023-12-26T01:56:59.566Z,85.5
2023-12-26T01:57:59.472Z,85.4
2023-12-26T01:58:59.470Z,85.7
2023-12-26T01:59:59.504Z,85.7
2023-12-26T02:01:05.835Z,86.4
2023-12-26T02:01:59.484Z,85.7
2023-12-26T02:02:59.868Z,86.4
2023-12-26T02:03:59.520Z,86
2023-12-26T02:04:59.508Z,85.7
2023-12-26T02:05:59.496Z,85.4
2023-12-26T02:06:59.477Z,85.1
2023-12-26T02:07:59.453Z,85.1
2023-12-26T02:08:59.495Z,85.1
2023-12-26T02:09:59.475Z,85.7
2023-12-26T02:10:59.465Z,86
2023-12-26T02:11:59.518Z,86.3
2023-12-26T02:12:59.466Z,86.4
2023-12-26T02:13:59.494Z,86.4
2023-12-26T02:14:59.514Z,86.7
2023-12-26T02:15:59.459Z,87
2023-12-26T02:16:59.464Z,86.7
2023-12-26T02:17:59.681Z,87
2023-12-26T02:18:59.620Z,86.7
2023-12-26T02:19:59.549Z,87
2023-12-26T02:20:59.460Z,86.4
2023-12-26T02:21:59.442Z,86.7
2023-12-26T02:23:00.486Z,87
2023-12-26T02:23:59.502Z,86.7
2023-12-26T02:24:59.447Z,86.4
2023-12-26T02:25:59.471Z,86.4
2023-12-26T02:26:59.540Z,86.4
2023-12-26T02:27:59.446Z,86.7
2023-12-26T02:28:59.445Z,86.4
2023-12-26T02:29:59.522Z,85.7
2023-12-26T02:30:59.497Z,86
2023-12-26T02:31:59.456Z,86.1
2023-12-26T02:32:59.941Z,86
2023-12-26T02:33:59.566Z,86
2023-12-26T02:34:59.434Z,85.7
2023-12-26T02:35:59.462Z,85.4
2023-12-26T02:36:59.440Z,85.1
2023-12-26T02:37:59.433Z,85.7
2023-12-26T02:38:59.454Z,85.4
2023-12-26T02:39:59.455Z,85.4
2023-12-26T02:40:59.447Z,85.4
2023-12-26T02:41:59.498Z,85.1
2023-12-26T02:42:59.438Z,85.1
2023-12-26T02:43:59.448Z,85.1
2023-12-26T02:44:59.584Z,84.8
2023-12-26T02:45:59.485Z,85.1
2023-12-26T02:46:59.453Z,85.7
2023-12-26T02:47:59.645Z,85.1
2023-12-26T02:48:59.644Z,85.1
2023-12-26T02:49:59.456Z,85.1
2023-12-26T02:50:59.538Z,85.1
2023-12-26T02:51:59.443Z,85.1
2023-12-26T02:52:59.453Z,85
2023-12-26T02:53:59.452Z,85.1
2023-12-26T02:54:59.443Z,85
2023-12-26T02:55:59.438Z,84.7
2023-12-26T02:56:59.468Z,84.4
2023-12-26T02:57:59.464Z,85
2023-12-26T02:58:59.456Z,85.6
2023-12-26T02:59:59.480Z,86.2
2023-12-26T03:00:59.345Z,86.2
2023-12-26T03:01:59.448Z,85.9
2023-12-26T03:02:59.703Z,85.6
2023-12-26T03:03:59.591Z,85.6
2023-12-26T03:04:59.501Z,85.6
2023-12-26T03:05:59.557Z,85.6
2023-12-26T03:06:59.439Z,86.2
2023-12-26T03:07:59.455Z,86.2
2023-12-26T03:08:59.519Z,85.6
2023-12-26T03:09:59.479Z,85
2023-12-26T03:10:59.444Z,84.9
2023-12-26T03:11:59.532Z,84.9
2023-12-26T03:12:59.456Z,84.9
2023-12-26T03:13:59.464Z,84.9
2023-12-26T03:14:59.518Z,84.9
2023-12-26T03:15:59.457Z,85.5
2023-12-26T03:16:59.464Z,85.5
2023-12-26T03:17:59.603Z,85.8
2023-12-26T03:18:59.623Z,85.8
2023-12-26T03:19:59.496Z,86.1
2023-12-26T03:20:59.465Z,86.1
2023-12-26T03:21:59.455Z,86.1
2023-12-26T03:22:59.455Z,86.1
2023-12-26T03:23:59.502Z,86.2
2023-12-26T03:24:59.484Z,86.1
2023-12-26T03:25:59.463Z,85.8
2023-12-26T03:26:59.498Z,85.5
2023-12-26T03:27:59.480Z,85.5
2023-12-26T03:28:59.464Z,84.9
2023-12-26T03:29:59.523Z,85.2
2023-12-26T03:30:59.504Z,85.2
2023-12-26T03:31:59.452Z,85.5
2023-12-26T03:32:59.850Z,85.5
2023-12-26T03:33:59.608Z,85.5
2023-12-26T03:34:59.470Z,85.5
2023-12-26T03:35:59.517Z,85.5
2023-12-26T03:36:59.459Z,85.5
2023-12-26T03:37:59.469Z,85.5
2023-12-26T03:38:59.471Z,85.5
2023-12-26T03:39:59.461Z,85.5
2023-12-26T03:40:59.453Z,85.5
2023-12-26T03:41:59.496Z,85.4
2023-12-26T03:42:59.463Z,85.4
2023-12-26T03:43:59.466Z,85.4
2023-12-26T03:44:59.520Z,85.4
2023-12-26T03:45:59.470Z,85.4
2023-12-26T03:46:59.495Z,85.4
2023-12-26T03:47:59.674Z,85.4
2023-12-26T03:48:59.563Z,85.4
2023-12-26T03:49:59.591Z,85.7
2023-12-26T03:50:59.509Z,85.8
2023-12-26T03:51:59.478Z,85.8
2023-12-26T03:52:59.632Z,85.7
2023-12-26T03:53:59.487Z,85.4
2023-12-26T03:54:59.559Z,85.4
2023-12-26T03:55:59.468Z,85.4
2023-12-26T03:56:59.495Z,85.4
2023-12-26T03:57:59.450Z,85.4
2023-12-26T03:58:59.463Z,85.8
2023-12-26T03:59:59.534Z,86
2023-12-26T04:00:59.470Z,86.1
2023-12-26T04:01:59.445Z,86.1
2023-12-26T04:03:15.263Z,86
2023-12-26T04:03:59.578Z,86.1
2023-12-26T04:04:59.530Z,86.1
2023-12-26T04:05:59.484Z,86.1
2023-12-26T04:06:59.455Z,86
2023-12-26T04:07:59.460Z,86
2023-12-26T04:08:59.504Z,86
2023-12-26T04:10:08.072Z,86.1
2023-12-26T04:10:59.463Z,86
2023-12-26T04:11:59.487Z,85.7
2023-12-26T04:12:59.443Z,85.4
2023-12-26T04:13:59.447Z,85.7
2023-12-26T04:14:59.500Z,86
2023-12-26T04:15:59.460Z,86
2023-12-26T04:16:59.455Z,85.7
2023-12-26T04:17:59.534Z,85.8
2023-12-26T04:18:59.592Z,85.7
2023-12-26T04:19:59.463Z,85.7
2023-12-26T04:20:59.497Z,86
2023-12-26T04:21:59.445Z,86.1
2023-12-26T04:22:59.483Z,86
2023-12-26T04:23:59.483Z,86.1
2023-12-26T04:24:59.452Z,86.1
2023-12-26T04:25:59.453Z,86.1
2023-12-26T04:26:59.494Z,86.1
2023-12-26T04:27:59.700Z,86.1
2023-12-26T04:28:59.451Z,86.1
2023-12-26T04:29:59.495Z,85.8
2023-12-26T04:30:59.472Z,85.8
2023-12-26T04:31:59.442Z,85.7
2023-12-26T04:32:59.933Z,85.5
2023-12-26T04:33:59.666Z,85.4
2023-12-26T04:34:59.465Z,85.4
2023-12-26T04:35:59.484Z,85.7
2023-12-26T04:36:59.462Z,86.1
2023-12-26T04:38:09.036Z,85.7
2023-12-26T04:38:59.546Z,85.8
2023-12-26T04:39:59.454Z,86.1
2023-12-26T04:40:59.451Z,86.4
2023-12-26T04:41:59.451Z,86.7
2023-12-26T04:42:59.473Z,86.7
2023-12-26T04:43:59.498Z,86.4
2023-12-26T04:44:59.495Z,86.1
2023-12-26T04:45:59.463Z,86.1
2023-12-26T04:46:59.468Z,86.1
2023-12-26T04:47:59.632Z,86.1
2023-12-26T04:48:59.587Z,86.1
2023-12-26T04:49:59.466Z,86.1
2023-12-26T04:50:59.483Z,86.1
2023-12-26T04:52:04.633Z,86.1
2023-12-26T04:52:59.456Z,86.1
2023-12-26T04:53:59.487Z,86.1
2023-12-26T04:54:59.462Z,86.1
2023-12-26T04:55:59.463Z,86.1
2023-12-26T04:56:59.532Z,86.1
2023-12-26T04:57:59.448Z,86.1
2023-12-26T04:58:59.461Z,86.1
2023-12-26T04:59:59.702Z,86.1
2023-12-26T05:00:59.495Z,86.4
2023-12-26T05:01:59.470Z,86.7
2023-12-26T05:02:59.982Z,86.7
2023-12-26T05:03:59.486Z,86.7
2023-12-26T05:04:59.479Z,86.4
2023-12-26T05:05:59.535Z,86.1
2023-12-26T05:06:59.464Z,86.1
2023-12-26T05:07:59.464Z,86.4
2023-12-26T05:08:59.496Z,86.4
2023-12-26T05:09:59.455Z,86.1
2023-12-26T05:10:59.443Z,85.8
2023-12-26T05:11:59.527Z,86.1
2023-12-26T05:13:08.397Z,86.1
2023-12-26T05:13:59.460Z,86.4
2023-12-26T05:14:59.575Z,86.1
2023-12-26T05:15:59.474Z,86.1
2023-12-26T05:16:59.535Z,86.1
2023-12-26T05:22:09.729Z,85.9
2023-12-26T05:22:59.859Z,85.9
2023-12-26T05:23:59.444Z,85.8
2023-12-26T05:25:00.694Z,85.8
2023-12-26T05:26:04.859Z,85.9
2023-12-26T05:26:59.477Z,86.2
2023-12-26T05:27:59.442Z,86.2
2023-12-26T05:28:59.414Z,86.2
2023-12-26T05:29:59.448Z,86.2
2023-12-26T05:30:59.433Z,86.2
2023-12-26T05:31:59.410Z,86.2
2023-12-26T05:32:59.847Z,86.2
2023-12-26T05:33:59.547Z,86.5
2023-12-26T05:34:59.413Z,86.5
2023-12-26T05:35:59.413Z,86.5
2023-12-26T05:36:59.401Z,86.5
2023-12-26T05:37:59.399Z,86.5
2023-12-26T05:38:59.449Z,86.8
2023-12-26T05:39:59.404Z,86.8
2023-12-26T05:40:59.406Z,86.5
2023-12-26T05:41:59.430Z,86.2
2023-12-26T05:42:59.763Z,86.5
2023-12-26T05:43:59.417Z,86.2
2023-12-26T05:44:59.491Z,86.8
2023-12-26T05:45:59.415Z,86.8
2023-12-26T05:46:59.453Z,86.8
2023-12-26T05:47:59.707Z,86.8
2023-12-26T05:49:00.073Z,86.8
2023-12-26T05:49:59.604Z,86.5
2023-12-26T05:50:59.519Z,86.8
2023-12-26T05:51:59.399Z,86.5
2023-12-26T05:52:59.680Z,86.5
2023-12-26T05:53:59.558Z,86.5
2023-12-26T05:54:59.504Z,86.2
2023-12-26T05:55:59.401Z,86.2
2023-12-26T05:56:59.511Z,86.2
2023-12-26T05:58:02.630Z,86.2
2023-12-26T05:58:59.459Z,86.2
2023-12-26T05:59:59.644Z,86.6
2023-12-26T06:00:59.541Z,86.5
2023-12-26T06:01:59.518Z,86.9
2023-12-26T06:02:59.955Z,86.8
2023-12-26T06:03:59.572Z,86.9
2023-12-26T06:04:59.540Z,86.9
2023-12-26T06:05:59.515Z,86.9
2023-12-26T06:06:59.504Z,86.9
2023-12-26T06:07:59.424Z,86.9
2023-12-26T06:08:59.507Z,87.2
2023-12-26T06:09:59.419Z,86.9
2023-12-26T06:10:59.426Z,87.5
2023-12-26T06:11:59.457Z,87.2
2023-12-26T06:12:59.420Z,87.2
2023-12-26T06:14:08.912Z,87.5
2023-12-26T06:14:59.470Z,86.9
2023-12-26T06:15:59.421Z,86.9
2023-12-26T06:16:59.407Z,86.6
2023-12-26T06:17:59.503Z,86.6
2023-12-26T06:18:59.607Z,86.6
2023-12-26T06:19:59.531Z,86.9
2023-12-26T06:20:59.482Z,86.9
2023-12-26T06:21:59.396Z,86.9
2023-12-26T06:22:59.428Z,86.6
2023-12-26T06:23:59.426Z,86.3
2023-12-26T06:25:01.995Z,86.3
2023-12-26T06:25:59.407Z,86.3
2023-12-26T06:26:59.415Z,86.3
2023-12-26T06:27:59.418Z,86.3
2023-12-26T06:28:59.414Z,86.3
2023-12-26T06:29:59.437Z,86.3
2023-12-26T06:30:59.457Z,86.3
2023-12-26T06:31:59.401Z,86.3
2023-12-26T06:33:00.046Z,86.3
2023-12-26T06:33:59.576Z,86.3
2023-12-26T06:34:59.433Z,86.3
2023-12-26T06:35:59.453Z,86.3
2023-12-26T06:36:59.415Z,86.3
2023-12-26T06:37:59.416Z,86.3
2023-12-26T06:38:59.441Z,86.3
2023-12-26T06:39:59.423Z,86.3
2023-12-26T06:40:59.429Z,86.3
2023-12-26T06:41:59.452Z,86.3
2023-12-26T06:42:59.453Z,86.3
2023-12-26T06:43:59.434Z,86.3
2023-12-26T06:44:59.430Z,86.3
2023-12-26T06:45:59.418Z,86.3
2023-12-26T06:46:59.403Z,86.3
2023-12-26T06:47:59.481Z,86.3
2023-12-26T06:48:59.462Z,86
2023-12-26T06:49:59.409Z,86
2023-12-26T06:50:59.441Z,87
2023-12-26T06:51:59.398Z,87.6
2023-12-26T06:52:59.414Z,86.7
2023-12-26T06:53:59.448Z,86.7
2023-12-26T06:54:59.421Z,86.7
2023-12-26T06:55:59.413Z,86.4
2023-12-26T06:56:59.449Z,87
2023-12-26T06:57:59.414Z,86.4
2023-12-26T06:58:59.421Z,86.4
2023-12-26T06:59:59.455Z,85.8
2023-12-26T07:00:59.475Z,85.8
2023-12-26T07:01:59.397Z,85.8
2023-12-26T07:02:59.914Z,85.8
2023-12-26T07:03:59.512Z,85.5
2023-12-26T07:04:59.473Z,84.9
2023-12-26T07:05:59.496Z,84.6
2023-12-26T07:06:59.436Z,84.6
2023-12-26T07:07:59.409Z,84.9
2023-12-26T07:08:59.431Z,84.6
2023-12-26T07:09:59.425Z,84.6
2023-12-26T07:10:59.419Z,84.6
2023-12-26T07:11:59.442Z,84.6
2023-12-26T07:12:59.410Z,84.6
2023-12-26T07:13:59.411Z,84.6
2023-12-26T07:14:59.426Z,85.2
2023-12-26T07:15:59.437Z,84.6
2023-12-26T07:16:59.402Z,84.6
2023-12-26T07:18:00.067Z,84.3
2023-12-26T07:19:00.080Z,84.6
2023-12-26T07:20:09.057Z,84.9
2023-12-26T07:20:59.505Z,84.6
2023-12-26T07:21:59.403Z,84
2023-12-26T07:22:59.590Z,84
2023-12-26T07:23:59.511Z,84.3
2023-12-26T07:24:59.400Z,84.6
2023-12-26T07:25:59.396Z,84.7
2023-12-26T07:26:59.430Z,84.7
2023-12-26T07:27:59.431Z,84.7
2023-12-26T07:28:59.406Z,85
2023-12-26T07:29:59.456Z,84.7
2023-12-26T07:30:59.454Z,84.1
2023-12-26T07:31:59.398Z,84.4
2023-12-26T07:32:59.821Z,84.1
2023-12-26T07:33:59.568Z,83.8
2023-12-26T07:34:59.408Z,83.1
2023-12-26T07:35:59.454Z,83.4
2023-12-26T07:36:59.418Z,84.1
2023-12-26T07:38:06.434Z,83.8
2023-12-26T07:38:59.441Z,83.5
2023-12-26T07:39:59.430Z,83.2
2023-12-26T07:40:59.438Z,83.5
2023-12-26T07:41:59.440Z,82.9
2023-12-26T07:42:59.437Z,82.8
2023-12-26T07:43:59.420Z,82.8
2023-12-26T07:44:59.458Z,82.8
2023-12-26T07:45:59.401Z,82.8
2023-12-26T07:46:59.408Z,83.1
2023-12-26T07:47:59.516Z,83.1
2023-12-26T07:48:59.579Z,83.4
2023-12-26T07:49:59.591Z,83.4
2023-12-26T07:50:59.417Z,83.4
2023-12-26T07:51:59.405Z,83.5
2023-12-26T07:52:59.419Z,83.4
2023-12-26T07:53:59.435Z,83.7
2023-12-26T07:54:59.416Z,83.4
2023-12-26T07:55:59.399Z,83.7
2023-12-26T07:57:00.642Z,84.1
2023-12-26T07:57:59.429Z,84.1
2023-12-26T07:58:59.423Z,84
2023-12-26T08:00:03.630Z,84.1
2023-12-26T08:00:59.436Z,84.1
2023-12-26T08:01:59.416Z,84.4
2023-12-26T08:02:59.666Z,84.1
2023-12-26T08:03:59.482Z,84.1
2023-12-26T08:04:59.433Z,83.8
2023-12-26T08:05:59.530Z,83.8
2023-12-26T08:06:59.420Z,83.8
2023-12-26T08:07:59.415Z,83.5
2023-12-26T08:08:59.501Z,83.8
2023-12-26T08:09:59.437Z,83.8
2023-12-26T08:10:59.399Z,84.1
2023-12-26T08:11:59.432Z,83.8
2023-12-26T08:12:59.498Z,83.5
2023-12-26T08:13:59.425Z,83.5
2023-12-26T08:15:05.684Z,83.5
2023-12-26T08:15:59.416Z,83.5
2023-12-26T08:16:59.426Z,83.5
2023-12-26T08:17:59.624Z,83.5
2023-12-26T08:18:59.644Z,83.8
2023-12-26T08:19:59.444Z,83.5
2023-12-26T08:20:59.522Z,83.5
2023-12-26T08:22:08.717Z,83.2
2023-12-26T08:22:59.426Z,82.9
2023-12-26T08:23:59.433Z,83.2
2023-12-26T08:24:59.436Z,83.5
2023-12-26T08:25:59.429Z,83.5
2023-12-26T08:26:59.455Z,83.8
2023-12-26T08:27:59.462Z,84.1
2023-12-26T08:28:59.424Z,84.1
2023-12-26T08:29:59.469Z,84.1
2023-12-26T08:30:59.432Z,84.1
2023-12-26T08:31:59.399Z,84.1
2023-12-26T08:32:59.704Z,84.1
2023-12-26T08:33:59.532Z,84.1
2023-12-26T08:34:59.419Z,84.1
2023-12-26T08:35:59.449Z,84.2
2023-12-26T08:36:59.419Z,84.2
2023-12-26T08:37:59.409Z,84.2
2023-12-26T08:38:59.426Z,84.2
2023-12-26T08:39:59.421Z,83.9
2023-12-26T08:40:59.409Z,83.9
2023-12-26T08:41:59.423Z,83.5
2023-12-26T08:42:59.536Z,83.5
2023-12-26T08:43:59.417Z,83.5
2023-12-26T08:44:59.447Z,83.6
2023-12-26T08:45:59.422Z,83.6
2023-12-26T08:46:59.421Z,83.3
2023-12-26T08:47:59.566Z,82.9
2023-12-26T08:48:59.596Z,82.9
2023-12-26T08:49:59.405Z,83
2023-12-26T08:50:59.439Z,82.9
2023-12-26T08:51:59.403Z,83
2023-12-26T08:52:59.452Z,83
2023-12-26T08:54:00.548Z,83
2023-12-26T08:54:59.419Z,83
2023-12-26T08:55:59.486Z,83
2023-12-26T08:56:59.430Z,83
2023-12-26T08:57:59.404Z,82.7
2023-12-26T08:58:59.419Z,82.7
2023-12-26T08:59:59.434Z,82.4
2023-12-26T09:00:59.408Z,82.4
2023-12-26T09:01:59.404Z,82.4
2023-12-26T09:03:06.218Z,82.4
2023-12-26T09:03:59.473Z,82.4
2023-12-26T09:04:59.406Z,82.7
2023-12-26T09:05:59.550Z,82.4
2023-12-26T09:06:59.493Z,82.1
2023-12-26T09:07:59.414Z,82.1
2023-12-26T09:08:59.455Z,81.8
2023-12-26T09:09:59.422Z,81.8
2023-12-26T09:10:59.428Z,82.4
2023-12-26T09:11:59.465Z,82.4
2023-12-26T09:12:59.691Z,82.4
2023-12-26T09:13:59.416Z,81.8
2023-12-26T09:14:59.431Z,82.1
2023-12-26T09:15:59.427Z,81.8
2023-12-26T09:16:59.410Z,82.5
2023-12-26T09:17:59.510Z,81.8
2023-12-26T09:18:59.512Z,82.2
2023-12-26T09:20:02.401Z,81.9
2023-12-26T09:20:59.432Z,82.5
2023-12-26T09:21:59.406Z,81.9
2023-12-26T09:22:59.499Z,81.6
2023-12-26T09:23:59.433Z,81.9
2023-12-26T09:24:59.421Z,81.3
2023-12-26T09:25:59.398Z,81.6
2023-12-26T09:27:03.508Z,81.6
2023-12-26T09:27:59.438Z,81.3
2023-12-26T09:28:59.417Z,81.3
2023-12-26T09:29:59.482Z,81.4
2023-12-26T09:30:59.479Z,81.4
2023-12-26T09:31:59.441Z,80.4
2023-12-26T09:32:59.718Z,80.5
2023-12-26T09:33:59.599Z,80.8
2023-12-26T09:34:59.417Z,80.8
2023-12-26T09:35:59.429Z,80.2
2023-12-26T09:36:59.397Z,80.2
2023-12-26T09:37:59.396Z,80.2
2023-12-26T09:38:59.400Z,79.6
2023-12-26T09:39:59.403Z,79.6
2023-12-26T09:41:08.994Z,79.3
2023-12-26T09:41:59.455Z,79.3
2023-12-26T09:42:59.411Z,79
2023-12-26T09:43:59.421Z,78.7
2023-12-26T09:44:59.452Z,78.7
2023-12-26T09:45:59.399Z,79
2023-12-26T09:46:59.419Z,78.7
2023-12-26T09:47:59.645Z,78.3
2023-12-26T09:48:59.564Z,78
2023-12-26T09:49:59.670Z,78
2023-12-26T09:50:59.558Z,78.4
2023-12-26T09:51:59.499Z,78.3
2023-12-26T09:52:59.532Z,77.7
2023-12-26T09:53:59.469Z,78.1
2023-12-26T09:54:59.399Z,78.4
2023-12-26T09:55:59.398Z,78.4
2023-12-26T09:56:59.466Z,78.4
2023-12-26T09:57:59.450Z,78.1
2023-12-26T09:58:59.414Z,77.8
2023-12-26T09:59:59.457Z,77.8
2023-12-26T10:00:59.424Z,77.8
2023-12-26T10:01:59.428Z,77.8
2023-12-26T10:02:59.829Z,77.8
2023-12-26T10:03:59.454Z,77.8
2023-12-26T10:04:59.458Z,77.8
2023-12-26T10:05:59.457Z,77.2
2023-12-26T10:06:59.428Z,77.2
2023-12-26T10:07:59.478Z,77.2
2023-12-26T10:08:59.444Z,77.2
2023-12-26T10:09:59.428Z,77.2
2023-12-26T10:10:59.413Z,77.5
2023-12-26T10:11:59.469Z,77.5
2023-12-26T10:12:59.500Z,77.2
2023-12-26T10:13:59.516Z,76.6
2023-12-26T10:14:59.430Z,77.2
2023-12-26T10:15:59.401Z,77.2
2023-12-26T10:16:59.424Z,77.2
2023-12-26T10:17:59.535Z,77.2
2023-12-26T10:18:59.527Z,77.5
2023-12-26T10:19:59.499Z,77.2
2023-12-26T10:20:59.466Z,77.2
2023-12-26T10:21:59.422Z,77.5
2023-12-26T10:22:59.468Z,77.2
2023-12-26T10:23:59.479Z,77.2
2023-12-26T10:24:59.423Z,77.5
2023-12-26T10:25:59.397Z,77.2
2023-12-26T10:26:59.443Z,77.5
2023-12-26T10:27:59.432Z,77.2
2023-12-26T10:28:59.399Z,77.2
2023-12-26T10:29:59.464Z,77.2
2023-12-26T10:30:59.449Z,77.2
2023-12-26T10:31:59.434Z,77.2
2023-12-26T10:32:59.904Z,77.5
2023-12-26T10:33:59.508Z,77.5
2023-12-26T10:34:59.445Z,77.2
2023-12-26T10:35:59.453Z,77.2
2023-12-26T10:36:59.430Z,77.2
2023-12-26T10:37:59.430Z,76.9
2023-12-26T10:38:59.469Z,77.2
2023-12-26T10:39:59.423Z,77.2
2023-12-26T10:40:59.405Z,77.2
2023-12-26T10:41:59.424Z,76.9
2023-12-26T10:43:00.072Z,76.6
2023-12-26T10:44:03.775Z,76.6
2023-12-26T10:44:59.434Z,76.9
2023-12-26T10:45:59.421Z,76.6
2023-12-26T10:46:59.424Z,76.6
2023-12-26T10:47:59.510Z,76.7
2023-12-26T10:48:59.633Z,76.6
2023-12-26T10:49:59.515Z,76
2023-12-26T10:50:59.448Z,76.3
2023-12-26T10:51:59.437Z,76.7
2023-12-26T10:52:59.576Z,76.7
2023-12-26T10:53:59.476Z,76.7
2023-12-26T10:55:00.915Z,76.7
2023-12-26T10:55:59.410Z,76.7
2023-12-26T10:56:59.434Z,76.7
2023-12-26T10:57:59.413Z,76.7
2023-12-26T10:59:07.203Z,76
2023-12-26T10:59:59.494Z,76.1
2023-12-26T11:00:59.483Z,75.4
2023-12-26T11:02:07.507Z,75.4
2023-12-26T11:02:59.879Z,75.5
2023-12-26T11:03:59.548Z,74.8
2023-12-26T11:04:59.436Z,75.5
2023-12-26T11:05:59.501Z,75.5
2023-12-26T11:06:59.417Z,75.5
2023-12-26T11:07:59.461Z,74.9
2023-12-26T11:08:59.423Z,74.9
2023-12-26T11:09:59.417Z,74.9
2023-12-26T11:10:59.417Z,74.9
2023-12-26T11:12:01.945Z,74.6
2023-12-26T11:13:06.596Z,74.3
2023-12-26T11:13:59.439Z,74.9
2023-12-26T11:14:59.449Z,74.3
2023-12-26T11:15:59.429Z,74.3
2023-12-26T11:16:59.428Z,73.4
2023-12-26T11:17:59.489Z,73.1
2023-12-26T11:18:59.694Z,73.1
2023-12-26T11:19:59.413Z,72.8
2023-12-26T11:20:59.463Z,72.4
2023-12-26T11:21:59.422Z,72.8
2023-12-26T11:22:59.422Z,71.8
2023-12-26T11:23:59.447Z,72.4
2023-12-26T11:24:59.748Z,71.8
2023-12-26T11:25:59.451Z,72.4
2023-12-26T11:27:11.197Z,72.4
2023-12-26T11:27:59.479Z,72.7
2023-12-26T11:28:59.453Z,72.4
2023-12-26T11:30:03.246Z,72.7
2023-12-26T11:30:59.431Z,72.7
2023-12-26T11:31:59.425Z,73.1
2023-12-26T11:32:59.513Z,72.1
2023-12-26T11:33:59.609Z,72.1
2023-12-26T11:34:59.459Z,71.8
2023-12-26T11:35:59.475Z,72.1
2023-12-26T11:37:05.032Z,72.4
2023-12-26T11:37:59.405Z,72.4
2023-12-26T11:38:59.457Z,72.4
2023-12-26T11:39:59.472Z,71.8
2023-12-26T11:40:59.417Z,71.8
2023-12-26T11:41:59.516Z,70.6
2023-12-26T11:42:59.444Z,71.8
2023-12-26T11:43:59.444Z,71.2
2023-12-26T11:44:59.467Z,70.5
2023-12-26T11:45:59.430Z,71.2
2023-12-26T11:46:59.425Z,71.2
2023-12-26T11:47:59.577Z,70
2023-12-26T11:48:59.583Z,70.6
2023-12-26T11:49:59.594Z,70.3
2023-12-26T11:50:59.431Z,69.3
2023-12-26T11:51:59.480Z,69.4
2023-12-26T11:52:59.406Z,70
2023-12-26T11:53:59.478Z,69.7
2023-12-26T11:54:59.493Z,70
2023-12-26T11:55:59.406Z,69.4
2023-12-26T11:57:03.660Z,70
2023-12-26T11:57:59.427Z,68.9
2023-12-26T11:58:59.411Z,68.1
2023-12-26T11:59:59.491Z,68.8
2023-12-26T12:00:59.431Z,68.1
2023-12-26T12:01:59.435Z,68.8
2023-12-26T12:02:59.465Z,68.1
2023-12-26T12:03:59.523Z,68.1
2023-12-26T12:04:59.421Z,68.8
2023-12-26T12:05:59.479Z,69.4
2023-12-26T12:06:59.474Z,68.8
2023-12-26T12:07:59.443Z,67.5
2023-12-26T12:08:59.461Z,68.8
2023-12-26T12:09:59.409Z,68.8
2023-12-26T12:10:59.415Z,68.3
2023-12-26T12:11:59.502Z,67.2
2023-12-26T12:12:59.417Z,67.2
2023-12-26T12:13:59.428Z,68.3
2023-12-26T12:14:59.480Z,67.2
2023-12-26T12:15:59.428Z,66
2023-12-26T12:16:59.419Z,66.3
2023-12-26T12:17:59.536Z,66.9
2023-12-26T12:18:59.555Z,66.3
2023-12-26T12:19:59.531Z,66.6
2023-12-26T12:20:59.491Z,66.9
2023-12-26T12:21:59.407Z,66.3
2023-12-26T12:22:59.421Z,66.3
2023-12-26T12:23:59.462Z,65.7
2023-12-26T12:25:04.283Z,66.3
2023-12-26T12:25:59.414Z,66.3
2023-12-26T12:26:59.751Z,65.4
2023-12-26T12:27:59.450Z,66.3
2023-12-26T12:28:59.438Z,65.1
2023-12-26T12:29:59.511Z,66
2023-12-26T12:30:59.538Z,65.1
2023-12-26T12:31:59.405Z,64.8
2023-12-26T12:32:59.491Z,65.4
2023-12-26T12:33:59.652Z,65.1
2023-12-26T12:34:59.432Z,64.5
2023-12-26T12:35:59.525Z,65.7
2023-12-26T12:36:59.421Z,65.1
2023-12-26T12:37:59.756Z,65.1
2023-12-26T12:38:59.518Z,65.6
2023-12-26T12:39:59.534Z,64.5
2023-12-26T12:41:01.614Z,64.5
2023-12-26T12:41:59.548Z,64.5
2023-12-26T12:42:59.417Z,64.2
2023-12-26T12:43:59.497Z,64.2
2023-12-26T12:44:59.487Z,63.3
2023-12-26T12:45:59.444Z,64.5
2023-12-26T12:46:59.424Z,63.4
2023-12-26T12:47:59.511Z,63.3
2023-12-26T12:48:59.465Z,63.3
2023-12-26T12:49:59.472Z,62.1
2023-12-26T12:50:59.445Z,62.4
2023-12-26T12:51:59.434Z,62.7
2023-12-26T12:52:59.416Z,62.1
2023-12-26T12:53:59.448Z,62.1
2023-12-26T12:54:59.419Z,62.1
2023-12-26T12:55:59.460Z,62.1
2023-12-26T12:56:59.481Z,62.1
2023-12-26T12:57:59.406Z,61.6
2023-12-26T12:59:06.741Z,61.7
2023-12-26T12:59:59.519Z,61.4
2023-12-26T13:01:02.648Z,62.1
2023-12-26T13:01:59.421Z,61.4
2023-12-26T13:02:59.470Z,62.1
2023-12-26T13:03:59.434Z,62.1
2023-12-26T13:04:59.577Z,62.7
2023-12-26T13:05:59.546Z,62.1
2023-12-26T13:06:59.453Z,62
2023-12-26T13:07:59.470Z,62.7
2023-12-26T13:08:59.511Z,62.1
2023-12-26T13:09:59.404Z,61.4
2023-12-26T13:10:59.426Z,62.4
2023-12-26T13:11:59.407Z,62.7
2023-12-26T13:12:59.411Z,62
2023-12-26T13:13:59.409Z,61.4
2023-12-26T13:15:02.656Z,62.1
2023-12-26T13:15:59.449Z,61.7
2023-12-26T13:16:59.412Z,61.4
2023-12-26T13:17:59.521Z,61.8
2023-12-26T13:18:59.563Z,62.1
2023-12-26T13:19:59.493Z,61.5
2023-12-26T13:20:59.431Z,61.8
2023-12-26T13:22:03.972Z,60.8
2023-12-26T13:22:59.441Z,60.8
2023-12-26T13:23:59.462Z,61.5
2023-12-26T13:25:01.420Z,61.5
2023-12-26T13:25:59.673Z,61.3
2023-12-26T13:26:59.437Z,60.9
2023-12-26T13:27:59.418Z,60.9